sensor_id;sensor_type;location;lat;lon;timestamp;P1;durP1;ratioP1;P2;durP2;ratioP2
40288;SDS011;28991;52.028;5.526;2024-01-30T00:00:06;2.85;;;2.25;;
40288;SDS011;28991;52.028;5.526;2024-01-30T00:02:33;2.75;;;2.03;;
40288;SDS011;28991;52.028;5.526;2024-01-30T00:04:58;2.50;;;1.92;;
40288;SDS011;28991;52.028;5.526;2024-01-30T00:07:24;3.10;;;2.22;;
40288;SDS011;28991;52.028;5.526;2024-01-30T00:09:49;2.67;;;2.00;;
40288;SDS011;28991;52.028;5.526;2024-01-30T00:12:15;2.58;;;1.98;;
40288;SDS011;28991;52.028;5.526;2024-01-30T00:14:41;2.45;;;2.13;;
40288;SDS011;28991;52.028;5.526;2024-01-30T00:17:10;2.50;;;2.08;;
40288;SDS011;28991;52.028;5.526;2024-01-30T00:19:36;2.20;;;1.98;;
40288;SDS011;28991;52.028;5.526;2024-01-30T00:22:01;3.35;;;1.85;;
40288;SDS011;28991;52.028;5.526;2024-01-30T00:24:27;2.42;;;1.90;;
40288;SDS011;28991;52.028;5.526;2024-01-30T00:26:52;2.80;;;1.70;;
40288;SDS011;28991;52.028;5.526;2024-01-30T00:29:18;2.58;;;1.92;;
40288;SDS011;28991;52.028;5.526;2024-01-30T00:31:45;1.83;;;1.60;;
40288;SDS011;28991;52.028;5.526;2024-01-30T00:34:11;2.70;;;1.90;;
40288;SDS011;28991;52.028;5.526;2024-01-30T00:36:37;2.92;;;1.88;;
40288;SDS011;28991;52.028;5.526;2024-01-30T00:39:02;3.90;;;2.03;;
40288;SDS011;28991;52.028;5.526;2024-01-30T00:41:31;2.67;;;2.00;;
40288;SDS011;28991;52.028;5.526;2024-01-30T00:43:57;2.33;;;1.85;;
40288;SDS011;28991;52.028;5.526;2024-01-30T00:46:22;2.53;;;1.65;;
40288;SDS011;28991;52.028;5.526;2024-01-30T00:48:48;2.50;;;1.95;;
40288;SDS011;28991;52.028;5.526;2024-01-30T00:51:13;2.55;;;2.05;;
40288;SDS011;28991;52.028;5.526;2024-01-30T00:53:39;3.22;;;2.42;;
40288;SDS011;28991;52.028;5.526;2024-01-30T00:56:06;2.45;;;1.95;;
40288;SDS011;28991;52.028;5.526;2024-01-30T00:58:32;2.15;;;1.58;;
40288;SDS011;28991;52.028;5.526;2024-01-30T01:00:58;3.10;;;2.00;;
40288;SDS011;28991;52.028;5.526;2024-01-30T01:03:24;2.58;;;2.10;;
40288;SDS011;28991;52.028;5.526;2024-01-30T01:05:50;1.95;;;1.75;;
40288;SDS011;28991;52.028;5.526;2024-01-30T01:08:15;2.70;;;2.00;;
40288;SDS011;28991;52.028;5.526;2024-01-30T01:10:41;2.00;;;1.75;;
40288;SDS011;28991;52.028;5.526;2024-01-30T01:13:07;3.08;;;2.20;;
40288;SDS011;28991;52.028;5.526;2024-01-30T01:15:32;2.78;;;1.63;;
40288;SDS011;28991;52.028;5.526;2024-01-30T01:17:58;2.22;;;2.03;;
40288;SDS011;28991;52.028;5.526;2024-01-30T01:20:23;2.03;;;1.67;;
40288;SDS011;28991;52.028;5.526;2024-01-30T01:22:49;2.63;;;1.98;;
40288;SDS011;28991;52.028;5.526;2024-01-30T01:25:14;2.17;;;1.85;;
40288;SDS011;28991;52.028;5.526;2024-01-30T01:27:40;2.63;;;2.22;;
40288;SDS011;28991;52.028;5.526;2024-01-30T01:30:08;1.98;;;1.75;;
40288;SDS011;28991;52.028;5.526;2024-01-30T01:32:34;3.30;;;2.10;;
40288;SDS011;28991;52.028;5.526;2024-01-30T01:35:01;2.22;;;1.77;;
40288;SDS011;28991;52.028;5.526;2024-01-30T01:37:27;2.05;;;1.63;;
40288;SDS011;28991;52.028;5.526;2024-01-30T01:39:52;2.47;;;1.40;;
40288;SDS011;28991;52.028;5.526;2024-01-30T01:42:18;2.28;;;1.88;;
40288;SDS011;28991;52.028;5.526;2024-01-30T01:44:43;1.85;;;1.45;;
40288;SDS011;28991;52.028;5.526;2024-01-30T01:47:09;2.20;;;2.00;;
40288;SDS011;28991;52.028;5.526;2024-01-30T01:49:35;2.13;;;1.83;;
40288;SDS011;28991;52.028;5.526;2024-01-30T01:52:00;2.45;;;2.00;;
40288;SDS011;28991;52.028;5.526;2024-01-30T01:54:26;2.63;;;2.10;;
40288;SDS011;28991;52.028;5.526;2024-01-30T01:56:54;2.10;;;1.90;;
40288;SDS011;28991;52.028;5.526;2024-01-30T01:59:20;2.30;;;1.80;;
40288;SDS011;28991;52.028;5.526;2024-01-30T02:01:47;2.80;;;2.25;;
40288;SDS011;28991;52.028;5.526;2024-01-30T02:04:16;2.22;;;2.03;;
40288;SDS011;28991;52.028;5.526;2024-01-30T02:06:42;2.72;;;2.13;;
40288;SDS011;28991;52.028;5.526;2024-01-30T02:09:09;2.65;;;1.60;;
40288;SDS011;28991;52.028;5.526;2024-01-30T02:11:34;2.35;;;1.80;;
40288;SDS011;28991;52.028;5.526;2024-01-30T02:14:04;2.70;;;2.28;;
40288;SDS011;28991;52.028;5.526;2024-01-30T02:16:30;2.50;;;2.17;;
40288;SDS011;28991;52.028;5.526;2024-01-30T02:18:59;2.28;;;1.77;;
40288;SDS011;28991;52.028;5.526;2024-01-30T02:21:24;1.73;;;1.55;;
40288;SDS011;28991;52.028;5.526;2024-01-30T02:23:50;2.05;;;1.80;;
40288;SDS011;28991;52.028;5.526;2024-01-30T02:26:17;2.47;;;1.70;;
40288;SDS011;28991;52.028;5.526;2024-01-30T02:28:42;2.45;;;1.83;;
40288;SDS011;28991;52.028;5.526;2024-01-30T02:31:08;2.38;;;2.08;;
40288;SDS011;28991;52.028;5.526;2024-01-30T02:33:34;2.22;;;2.03;;
40288;SDS011;28991;52.028;5.526;2024-01-30T02:35:59;2.28;;;1.67;;
40288;SDS011;28991;52.028;5.526;2024-01-30T02:38:25;2.00;;;1.67;;
40288;SDS011;28991;52.028;5.526;2024-01-30T02:40:51;1.83;;;1.65;;
40288;SDS011;28991;52.028;5.526;2024-01-30T02:43:17;2.03;;;1.80;;
40288;SDS011;28991;52.028;5.526;2024-01-30T02:45:43;2.38;;;1.90;;
40288;SDS011;28991;52.028;5.526;2024-01-30T02:48:08;1.90;;;1.70;;
40288;SDS011;28991;52.028;5.526;2024-01-30T02:50:34;3.40;;;1.92;;
40288;SDS011;28991;52.028;5.526;2024-01-30T02:53:00;2.30;;;1.70;;
40288;SDS011;28991;52.028;5.526;2024-01-30T02:55:25;2.80;;;2.30;;
40288;SDS011;28991;52.028;5.526;2024-01-30T02:57:51;2.40;;;1.83;;
40288;SDS011;28991;52.028;5.526;2024-01-30T03:00:16;1.95;;;1.60;;
40288;SDS011;28991;52.028;5.526;2024-01-30T03:02:44;1.92;;;1.73;;
40288;SDS011;28991;52.028;5.526;2024-01-30T03:05:10;2.53;;;2.05;;
40288;SDS011;28991;52.028;5.526;2024-01-30T03:07:35;2.30;;;2.05;;
40288;SDS011;28991;52.028;5.526;2024-01-30T03:10:01;2.85;;;2.15;;
40288;SDS011;28991;52.028;5.526;2024-01-30T03:12:26;2.10;;;1.60;;
40288;SDS011;28991;52.028;5.526;2024-01-30T03:14:52;3.20;;;2.50;;
40288;SDS011;28991;52.028;5.526;2024-01-30T03:17:18;2.13;;;1.70;;
40288;SDS011;28991;52.028;5.526;2024-01-30T03:19:44;2.10;;;1.90;;
40288;SDS011;28991;52.028;5.526;2024-01-30T03:22:09;2.08;;;1.88;;
40288;SDS011;28991;52.028;5.526;2024-01-30T03:24:35;3.60;;;2.20;;
40288;SDS011;28991;52.028;5.526;2024-01-30T03:27:00;2.78;;;1.65;;
40288;SDS011;28991;52.028;5.526;2024-01-30T03:29:26;2.47;;;1.67;;
40288;SDS011;28991;52.028;5.526;2024-01-30T03:31:52;2.22;;;1.92;;
40288;SDS011;28991;52.028;5.526;2024-01-30T03:34:17;1.70;;;1.60;;
40288;SDS011;28991;52.028;5.526;2024-01-30T03:36:43;2.70;;;1.90;;
40288;SDS011;28991;52.028;5.526;2024-01-30T03:39:08;2.05;;;1.83;;
40288;SDS011;28991;52.028;5.526;2024-01-30T03:41:34;1.92;;;1.73;;
40288;SDS011;28991;52.028;5.526;2024-01-30T03:43:59;2.00;;;1.80;;
40288;SDS011;28991;52.028;5.526;2024-01-30T03:46:25;2.50;;;2.03;;
40288;SDS011;28991;52.028;5.526;2024-01-30T03:48:50;2.70;;;2.10;;
40288;SDS011;28991;52.028;5.526;2024-01-30T03:51:16;1.88;;;1.60;;
40288;SDS011;28991;52.028;5.526;2024-01-30T03:53:42;2.38;;;1.95;;
40288;SDS011;28991;52.028;5.526;2024-01-30T03:56:08;2.00;;;1.58;;
40288;SDS011;28991;52.028;5.526;2024-01-30T03:58:34;2.88;;;1.85;;
40288;SDS011;28991;52.028;5.526;2024-01-30T04:01:00;2.17;;;1.98;;
40288;SDS011;28991;52.028;5.526;2024-01-30T04:03:25;2.33;;;1.40;;
40288;SDS011;28991;52.028;5.526;2024-01-30T04:05:51;2.75;;;2.13;;
40288;SDS011;28991;52.028;5.526;2024-01-30T04:08:17;2.20;;;2.00;;
40288;SDS011;28991;52.028;5.526;2024-01-30T04:10:43;2.72;;;1.92;;
40288;SDS011;28991;52.028;5.526;2024-01-30T04:13:09;2.60;;;1.85;;
40288;SDS011;28991;52.028;5.526;2024-01-30T04:15:35;1.90;;;1.75;;
40288;SDS011;28991;52.028;5.526;2024-01-30T04:18:00;2.33;;;1.95;;
40288;SDS011;28991;52.028;5.526;2024-01-30T04:20:26;2.47;;;1.67;;
40288;SDS011;28991;52.028;5.526;2024-01-30T04:22:52;2.45;;;1.85;;
40288;SDS011;28991;52.028;5.526;2024-01-30T04:25:17;2.17;;;1.92;;
40288;SDS011;28991;52.028;5.526;2024-01-30T04:27:43;1.70;;;1.60;;
40288;SDS011;28991;52.028;5.526;2024-01-30T04:30:09;2.40;;;1.88;;
40288;SDS011;28991;52.028;5.526;2024-01-30T04:32:35;1.95;;;1.70;;
40288;SDS011;28991;52.028;5.526;2024-01-30T04:35:01;2.60;;;1.80;;
40288;SDS011;28991;52.028;5.526;2024-01-30T04:37:26;2.78;;;1.73;;
40288;SDS011;28991;52.028;5.526;2024-01-30T04:39:52;1.80;;;1.58;;
40288;SDS011;28991;52.028;5.526;2024-01-30T04:42:18;2.15;;;1.95;;
40288;SDS011;28991;52.028;5.526;2024-01-30T04:44:43;1.73;;;1.55;;
40288;SDS011;28991;52.028;5.526;2024-01-30T04:47:09;2.03;;;1.77;;
40288;SDS011;28991;52.028;5.526;2024-01-30T04:49:36;2.10;;;1.65;;
40288;SDS011;28991;52.028;5.526;2024-01-30T04:52:08;2.00;;;1.73;;
40288;SDS011;28991;52.028;5.526;2024-01-30T04:54:34;2.17;;;1.85;;
40288;SDS011;28991;52.028;5.526;2024-01-30T04:57:03;2.40;;;1.80;;
40288;SDS011;28991;52.028;5.526;2024-01-30T04:59:33;2.25;;;1.90;;
40288;SDS011;28991;52.028;5.526;2024-01-30T05:01:59;2.28;;;1.73;;
40288;SDS011;28991;52.028;5.526;2024-01-30T05:04:24;2.33;;;1.90;;
40288;SDS011;28991;52.028;5.526;2024-01-30T05:06:50;2.30;;;1.73;;
40288;SDS011;28991;52.028;5.526;2024-01-30T05:09:15;2.20;;;1.85;;
40288;SDS011;28991;52.028;5.526;2024-01-30T05:11:41;1.88;;;1.77;;
40288;SDS011;28991;52.028;5.526;2024-01-30T05:14:07;1.92;;;1.73;;
40288;SDS011;28991;52.028;5.526;2024-01-30T05:16:33;2.15;;;1.95;;
40288;SDS011;28991;52.028;5.526;2024-01-30T05:18:59;3.05;;;2.10;;
40288;SDS011;28991;52.028;5.526;2024-01-30T05:21:25;1.85;;;1.70;;
40288;SDS011;28991;52.028;5.526;2024-01-30T05:23:50;2.10;;;1.90;;
40288;SDS011;28991;52.028;5.526;2024-01-30T05:26:16;2.47;;;1.90;;
40288;SDS011;28991;52.028;5.526;2024-01-30T05:28:42;1.98;;;1.77;;
40288;SDS011;28991;52.028;5.526;2024-01-30T05:31:09;2.00;;;1.80;;
40288;SDS011;28991;52.028;5.526;2024-01-30T05:33:35;1.92;;;1.70;;
40288;SDS011;28991;52.028;5.526;2024-01-30T05:36:00;1.75;;;1.65;;
40288;SDS011;28991;52.028;5.526;2024-01-30T05:38:26;2.13;;;1.90;;
40288;SDS011;28991;52.028;5.526;2024-01-30T05:40:52;1.95;;;1.65;;
40288;SDS011;28991;52.028;5.526;2024-01-30T05:43:17;2.00;;;1.80;;
40288;SDS011;28991;52.028;5.526;2024-01-30T05:45:43;1.77;;;1.60;;
40288;SDS011;28991;52.028;5.526;2024-01-30T05:48:09;1.80;;;1.70;;
40288;SDS011;28991;52.028;5.526;2024-01-30T05:50:35;1.75;;;1.65;;
40288;SDS011;28991;52.028;5.526;2024-01-30T05:53:00;1.83;;;1.65;;
40288;SDS011;28991;52.028;5.526;2024-01-30T05:55:26;2.08;;;1.63;;
40288;SDS011;28991;52.028;5.526;2024-01-30T05:57:52;2.03;;;1.70;;
40288;SDS011;28991;52.028;5.526;2024-01-30T06:00:17;2.42;;;1.92;;
40288;SDS011;28991;52.028;5.526;2024-01-30T06:02:43;2.03;;;1.77;;
40288;SDS011;28991;52.028;5.526;2024-01-30T06:05:09;2.75;;;2.22;;
40288;SDS011;28991;52.028;5.526;2024-01-30T06:07:34;2.20;;;1.90;;
40288;SDS011;28991;52.028;5.526;2024-01-30T06:10:00;2.13;;;1.90;;
40288;SDS011;28991;52.028;5.526;2024-01-30T06:12:27;2.92;;;2.28;;
40288;SDS011;28991;52.028;5.526;2024-01-30T06:14:53;3.15;;;2.30;;
40288;SDS011;28991;52.028;5.526;2024-01-30T06:17:21;4.05;;;2.40;;
40288;SDS011;28991;52.028;5.526;2024-01-30T06:19:47;2.13;;;1.92;;
40288;SDS011;28991;52.028;5.526;2024-01-30T06:22:13;2.90;;;2.50;;
40288;SDS011;28991;52.028;5.526;2024-01-30T06:24:38;2.25;;;2.03;;
40288;SDS011;28991;52.028;5.526;2024-01-30T06:27:04;2.72;;;2.50;;
40288;SDS011;28991;52.028;5.526;2024-01-30T06:29:29;2.53;;;1.65;;
40288;SDS011;28991;52.028;5.526;2024-01-30T06:31:55;3.92;;;2.33;;
40288;SDS011;28991;52.028;5.526;2024-01-30T06:34:21;2.72;;;2.13;;
40288;SDS011;28991;52.028;5.526;2024-01-30T06:36:46;2.60;;;2.00;;
40288;SDS011;28991;52.028;5.526;2024-01-30T06:39:12;3.88;;;2.15;;
40288;SDS011;28991;52.028;5.526;2024-01-30T06:41:37;2.17;;;1.92;;
40288;SDS011;28991;52.028;5.526;2024-01-30T06:44:03;2.33;;;2.08;;
40288;SDS011;28991;52.028;5.526;2024-01-30T06:46:31;1.50;;;1.40;;
40288;SDS011;28991;52.028;5.526;2024-01-30T06:48:57;1.67;;;1.58;;
40288;SDS011;28991;52.028;5.526;2024-01-30T06:51:23;2.10;;;1.90;;
40288;SDS011;28991;52.028;5.526;2024-01-30T06:53:48;1.80;;;1.55;;
40288;SDS011;28991;52.028;5.526;2024-01-30T06:56:14;2.35;;;2.13;;
40288;SDS011;28991;52.028;5.526;2024-01-30T06:58:39;2.17;;;1.98;;
40288;SDS011;28991;52.028;5.526;2024-01-30T07:01:06;2.55;;;2.35;;
40288;SDS011;28991;52.028;5.526;2024-01-30T07:03:31;2.17;;;1.67;;
40288;SDS011;28991;52.028;5.526;2024-01-30T07:05:57;2.70;;;2.08;;
40288;SDS011;28991;52.028;5.526;2024-01-30T07:08:22;7.70;;;2.75;;
40288;SDS011;28991;52.028;5.526;2024-01-30T07:10:48;3.25;;;1.92;;
40288;SDS011;28991;52.028;5.526;2024-01-30T07:13:13;2.22;;;1.92;;
40288;SDS011;28991;52.028;5.526;2024-01-30T07:15:41;2.20;;;2.00;;
40288;SDS011;28991;52.028;5.526;2024-01-30T07:18:07;3.20;;;2.03;;
40288;SDS011;28991;52.028;5.526;2024-01-30T07:20:32;1.95;;;1.77;;
40288;SDS011;28991;52.028;5.526;2024-01-30T07:22:58;13.88;;;2.10;;
40288;SDS011;28991;52.028;5.526;2024-01-30T07:25:24;2.45;;;1.88;;
40288;SDS011;28991;52.028;5.526;2024-01-30T07:27:52;1.50;;;1.33;;
40288;SDS011;28991;52.028;5.526;2024-01-30T07:30:18;2.83;;;1.90;;
40288;SDS011;28991;52.028;5.526;2024-01-30T07:32:46;1.88;;;1.63;;
40288;SDS011;28991;52.028;5.526;2024-01-30T07:35:13;2.25;;;1.70;;
40288;SDS011;28991;52.028;5.526;2024-01-30T07:37:39;1.98;;;1.65;;
40288;SDS011;28991;52.028;5.526;2024-01-30T07:40:05;2.60;;;1.90;;
40288;SDS011;28991;52.028;5.526;2024-01-30T07:42:31;4.97;;;1.77;;
40288;SDS011;28991;52.028;5.526;2024-01-30T07:44:58;2.28;;;2.08;;
40288;SDS011;28991;52.028;5.526;2024-01-30T07:47:23;2.53;;;1.55;;
40288;SDS011;28991;52.028;5.526;2024-01-30T07:49:49;2.00;;;1.77;;
40288;SDS011;28991;52.028;5.526;2024-01-30T07:52:14;4.95;;;1.67;;
40288;SDS011;28991;52.028;5.526;2024-01-30T07:54:50;1.75;;;1.60;;
40288;SDS011;28991;52.028;5.526;2024-01-30T07:57:16;2.15;;;1.80;;
40288;SDS011;28991;52.028;5.526;2024-01-30T07:59:45;2.10;;;1.90;;
40288;SDS011;28991;52.028;5.526;2024-01-30T08:02:11;1.83;;;1.67;;
40288;SDS011;28991;52.028;5.526;2024-01-30T08:04:37;2.05;;;1.83;;
40288;SDS011;28991;52.028;5.526;2024-01-30T08:07:03;2.70;;;2.20;;
40288;SDS011;28991;52.028;5.526;2024-01-30T08:09:29;1.70;;;1.35;;
40288;SDS011;28991;52.028;5.526;2024-01-30T08:11:54;2.97;;;1.85;;
40288;SDS011;28991;52.028;5.526;2024-01-30T08:14:20;1.60;;;1.50;;
40288;SDS011;28991;52.028;5.526;2024-01-30T08:16:45;2.42;;;1.83;;
40288;SDS011;28991;52.028;5.526;2024-01-30T08:19:11;2.88;;;2.13;;
40288;SDS011;28991;52.028;5.526;2024-01-30T08:21:37;3.83;;;1.80;;
40288;SDS011;28991;52.028;5.526;2024-01-30T08:24:03;2.58;;;1.83;;
40288;SDS011;28991;52.028;5.526;2024-01-30T08:26:29;2.60;;;1.92;;
40288;SDS011;28991;52.028;5.526;2024-01-30T08:28:55;2.40;;;1.98;;
40288;SDS011;28991;52.028;5.526;2024-01-30T08:31:21;4.57;;;2.05;;
40288;SDS011;28991;52.028;5.526;2024-01-30T08:33:46;4.30;;;2.00;;
40288;SDS011;28991;52.028;5.526;2024-01-30T08:36:12;2.97;;;2.03;;
40288;SDS011;28991;52.028;5.526;2024-01-30T08:38:38;3.05;;;2.10;;
40288;SDS011;28991;52.028;5.526;2024-01-30T08:41:03;2.72;;;1.98;;
40288;SDS011;28991;52.028;5.526;2024-01-30T08:43:30;2.67;;;2.22;;
40288;SDS011;28991;52.028;5.526;2024-01-30T08:45:58;4.07;;;2.33;;
40288;SDS011;28991;52.028;5.526;2024-01-30T08:48:24;3.47;;;1.90;;
40288;SDS011;28991;52.028;5.526;2024-01-30T08:50:50;3.50;;;1.95;;
40288;SDS011;28991;52.028;5.526;2024-01-30T08:53:16;3.40;;;2.22;;
40288;SDS011;28991;52.028;5.526;2024-01-30T08:55:41;2.97;;;2.05;;
40288;SDS011;28991;52.028;5.526;2024-01-30T08:58:07;2.80;;;2.05;;
40288;SDS011;28991;52.028;5.526;2024-01-30T09:00:33;2.20;;;1.70;;
40288;SDS011;28991;52.028;5.526;2024-01-30T09:02:58;2.65;;;1.98;;
40288;SDS011;28991;52.028;5.526;2024-01-30T09:05:24;2.88;;;1.77;;
40288;SDS011;28991;52.028;5.526;2024-01-30T09:07:49;5.75;;;1.80;;
40288;SDS011;28991;52.028;5.526;2024-01-30T09:10:15;3.72;;;2.63;;
40288;SDS011;28991;52.028;5.526;2024-01-30T09:12:41;3.95;;;2.42;;
40288;SDS011;28991;52.028;5.526;2024-01-30T09:15:06;4.80;;;2.00;;
40288;SDS011;28991;52.028;5.526;2024-01-30T09:17:33;2.17;;;1.88;;
40288;SDS011;28991;52.028;5.526;2024-01-30T09:19:59;4.50;;;1.85;;
40288;SDS011;28991;52.028;5.526;2024-01-30T09:22:24;2.95;;;2.00;;
40288;SDS011;28991;52.028;5.526;2024-01-30T09:24:50;4.22;;;2.58;;
40288;SDS011;28991;52.028;5.526;2024-01-30T09:27:16;2.22;;;1.50;;
40288;SDS011;28991;52.028;5.526;2024-01-30T09:29:41;2.35;;;1.83;;
40288;SDS011;28991;52.028;5.526;2024-01-30T09:32:07;4.50;;;1.60;;
40288;SDS011;28991;52.028;5.526;2024-01-30T09:34:34;1.70;;;1.45;;
40288;SDS011;28991;52.028;5.526;2024-01-30T09:36:59;2.63;;;1.67;;
40288;SDS011;28991;52.028;5.526;2024-01-30T09:39:25;2.17;;;1.40;;
40288;SDS011;28991;52.028;5.526;2024-01-30T09:44:28;4.05;;;1.90;;
40288;SDS011;28991;52.028;5.526;2024-01-30T09:46:55;2.85;;;2.10;;
40288;SDS011;28991;52.028;5.526;2024-01-30T09:49:23;8.73;;;2.25;;
40288;SDS011;28991;52.028;5.526;2024-01-30T09:51:50;5.13;;;2.70;;
40288;SDS011;28991;52.028;5.526;2024-01-30T09:54:15;4.80;;;2.30;;
40288;SDS011;28991;52.028;5.526;2024-01-30T09:56:41;3.95;;;2.60;;
40288;SDS011;28991;52.028;5.526;2024-01-30T09:59:07;2.47;;;2.22;;
40288;SDS011;28991;52.028;5.526;2024-01-30T10:01:34;3.00;;;2.30;;
40288;SDS011;28991;52.028;5.526;2024-01-30T10:04:01;2.75;;;2.03;;
40288;SDS011;28991;52.028;5.526;2024-01-30T10:06:26;5.18;;;2.00;;
40288;SDS011;28991;52.028;5.526;2024-01-30T10:08:53;3.30;;;2.15;;
40288;SDS011;28991;52.028;5.526;2024-01-30T10:11:19;2.72;;;1.98;;
40288;SDS011;28991;52.028;5.526;2024-01-30T10:13:44;2.78;;;2.03;;
40288;SDS011;28991;52.028;5.526;2024-01-30T10:16:13;3.08;;;1.90;;
40288;SDS011;28991;52.028;5.526;2024-01-30T10:18:40;3.05;;;1.90;;
40288;SDS011;28991;52.028;5.526;2024-01-30T10:21:06;2.40;;;2.20;;
40288;SDS011;28991;52.028;5.526;2024-01-30T10:23:32;5.00;;;2.35;;
40288;SDS011;28991;52.028;5.526;2024-01-30T10:25:58;3.38;;;2.33;;
40288;SDS011;28991;52.028;5.526;2024-01-30T10:28:26;7.68;;;2.42;;
40288;SDS011;28991;52.028;5.526;2024-01-30T10:31:00;3.75;;;2.08;;
40288;SDS011;28991;52.028;5.526;2024-01-30T10:33:27;2.75;;;2.10;;
40288;SDS011;28991;52.028;5.526;2024-01-30T10:35:54;2.50;;;2.17;;
40288;SDS011;28991;52.028;5.526;2024-01-30T10:38:30;2.45;;;1.85;;
40288;SDS011;28991;52.028;5.526;2024-01-30T10:40:57;2.97;;;1.77;;
40288;SDS011;28991;52.028;5.526;2024-01-30T10:43:31;3.92;;;2.05;;
40288;SDS011;28991;52.028;5.526;2024-01-30T10:46:22;3.75;;;1.95;;
40288;SDS011;28991;52.028;5.526;2024-01-30T10:48:57;3.75;;;1.80;;
40288;SDS011;28991;52.028;5.526;2024-01-30T10:51:25;2.60;;;2.00;;
40288;SDS011;28991;52.028;5.526;2024-01-30T10:53:52;8.35;;;2.20;;
40288;SDS011;28991;52.028;5.526;2024-01-30T10:56:18;2.88;;;1.95;;
40288;SDS011;28991;52.028;5.526;2024-01-30T10:58:49;3.33;;;2.05;;
40288;SDS011;28991;52.028;5.526;2024-01-30T11:01:19;4.10;;;1.95;;
40288;SDS011;28991;52.028;5.526;2024-01-30T11:03:52;3.63;;;1.77;;
40288;SDS011;28991;52.028;5.526;2024-01-30T11:06:22;2.08;;;1.65;;
40288;SDS011;28991;52.028;5.526;2024-01-30T11:09:03;4.38;;;1.50;;
40288;SDS011;28991;52.028;5.526;2024-01-30T11:11:47;2.78;;;1.80;;
40288;SDS011;28991;52.028;5.526;2024-01-30T11:14:16;3.17;;;1.70;;
40288;SDS011;28991;52.028;5.526;2024-01-30T11:16:49;1.67;;;1.20;;
40288;SDS011;28991;52.028;5.526;2024-01-30T11:19:14;5.38;;;1.88;;
40288;SDS011;28991;52.028;5.526;2024-01-30T11:21:41;3.03;;;1.40;;
40288;SDS011;28991;52.028;5.526;2024-01-30T11:24:07;1.90;;;1.70;;
40288;SDS011;28991;52.028;5.526;2024-01-30T11:26:33;3.03;;;1.80;;
40288;SDS011;28991;52.028;5.526;2024-01-30T11:28:59;2.50;;;1.45;;
40288;SDS011;28991;52.028;5.526;2024-01-30T11:31:29;5.05;;;1.70;;
40288;SDS011;28991;52.028;5.526;2024-01-30T11:33:55;5.32;;;1.85;;
40288;SDS011;28991;52.028;5.526;2024-01-30T11:36:22;1.75;;;1.40;;
40288;SDS011;28991;52.028;5.526;2024-01-30T11:38:51;6.03;;;2.25;;
40288;SDS011;28991;52.028;5.526;2024-01-30T11:41:17;2.67;;;2.00;;
40288;SDS011;28991;52.028;5.526;2024-01-30T11:43:43;1.88;;;1.70;;
40288;SDS011;28991;52.028;5.526;2024-01-30T11:46:16;1.88;;;1.38;;
40288;SDS011;28991;52.028;5.526;2024-01-30T11:48:42;3.75;;;1.40;;
40288;SDS011;28991;52.028;5.526;2024-01-30T11:51:08;3.03;;;1.40;;
40288;SDS011;28991;52.028;5.526;2024-01-30T11:53:33;5.57;;;1.65;;
40288;SDS011;28991;52.028;5.526;2024-01-30T11:55:59;9.77;;;1.75;;
40288;SDS011;28991;52.028;5.526;2024-01-30T11:58:25;3.55;;;1.23;;
40288;SDS011;28991;52.028;5.526;2024-01-30T12:00:56;2.85;;;1.30;;
40288;SDS011;28991;52.028;5.526;2024-01-30T12:03:22;4.10;;;1.40;;
40288;SDS011;28991;52.028;5.526;2024-01-30T12:05:54;2.20;;;1.08;;
40288;SDS011;28991;52.028;5.526;2024-01-30T12:08:21;3.38;;;1.65;;
40288;SDS011;28991;52.028;5.526;2024-01-30T12:10:54;4.65;;;1.25;;
40288;SDS011;28991;52.028;5.526;2024-01-30T12:13:21;2.47;;;1.60;;
40288;SDS011;28991;52.028;5.526;2024-01-30T12:15:47;4.18;;;2.20;;
40288;SDS011;28991;52.028;5.526;2024-01-30T12:18:12;2.38;;;1.20;;
40288;SDS011;28991;52.028;5.526;2024-01-30T12:20:38;3.25;;;1.35;;
40288;SDS011;28991;52.028;5.526;2024-01-30T12:23:03;5.35;;;1.40;;
40288;SDS011;28991;52.028;5.526;2024-01-30T12:25:29;5.50;;;1.52;;
40288;SDS011;28991;52.028;5.526;2024-01-30T12:27:55;3.92;;;1.02;;
40288;SDS011;28991;52.028;5.526;2024-01-30T12:30:20;4.57;;;1.50;;
40288;SDS011;28991;52.028;5.526;2024-01-30T12:32:46;4.88;;;1.10;;
40288;SDS011;28991;52.028;5.526;2024-01-30T12:35:15;2.90;;;1.23;;
40288;SDS011;28991;52.028;5.526;2024-01-30T12:37:43;1.83;;;0.93;;
40288;SDS011;28991;52.028;5.526;2024-01-30T12:40:09;2.95;;;0.73;;
40288;SDS011;28991;52.028;5.526;2024-01-30T12:42:36;3.45;;;1.20;;
40288;SDS011;28991;52.028;5.526;2024-01-30T12:45:02;4.25;;;1.58;;
40288;SDS011;28991;52.028;5.526;2024-01-30T12:47:31;1.80;;;1.00;;
40288;SDS011;28991;52.028;5.526;2024-01-30T12:49:57;7.15;;;1.40;;
40288;SDS011;28991;52.028;5.526;2024-01-30T12:52:23;1.10;;;0.82;;
40288;SDS011;28991;52.028;5.526;2024-01-30T12:54:49;5.78;;;1.20;;
40288;SDS011;28991;52.028;5.526;2024-01-30T12:57:16;10.90;;;0.90;;
40288;SDS011;28991;52.028;5.526;2024-01-30T12:59:42;4.10;;;0.80;;
40288;SDS011;28991;52.028;5.526;2024-01-30T13:02:09;2.17;;;0.90;;
40288;SDS011;28991;52.028;5.526;2024-01-30T13:04:35;4.00;;;1.08;;
40288;SDS011;28991;52.028;5.526;2024-01-30T13:07:00;4.28;;;1.00;;
40288;SDS011;28991;52.028;5.526;2024-01-30T13:09:26;7.25;;;0.90;;
40288;SDS011;28991;52.028;5.526;2024-01-30T13:11:52;3.78;;;0.80;;
40288;SDS011;28991;52.028;5.526;2024-01-30T13:14:18;2.72;;;0.70;;
40288;SDS011;28991;52.028;5.526;2024-01-30T13:16:44;3.95;;;0.90;;
40288;SDS011;28991;52.028;5.526;2024-01-30T13:19:10;1.60;;;0.80;;
40288;SDS011;28991;52.028;5.526;2024-01-30T13:21:35;3.22;;;1.30;;
40288;SDS011;28991;52.028;5.526;2024-01-30T13:24:01;1.50;;;0.90;;
40288;SDS011;28991;52.028;5.526;2024-01-30T13:26:27;1.65;;;0.70;;
40288;SDS011;28991;52.028;5.526;2024-01-30T13:28:53;3.60;;;0.75;;
40288;SDS011;28991;52.028;5.526;2024-01-30T13:31:18;2.95;;;0.80;;
40288;SDS011;28991;52.028;5.526;2024-01-30T13:33:44;1.58;;;0.80;;
40288;SDS011;28991;52.028;5.526;2024-01-30T13:36:10;4.18;;;1.05;;
40288;SDS011;28991;52.028;5.526;2024-01-30T13:38:36;2.15;;;0.55;;
40288;SDS011;28991;52.028;5.526;2024-01-30T13:41:02;0.75;;;0.50;;
40288;SDS011;28991;52.028;5.526;2024-01-30T13:43:28;1.05;;;0.73;;
40288;SDS011;28991;52.028;5.526;2024-01-30T13:45:54;3.08;;;0.60;;
40288;SDS011;28991;52.028;5.526;2024-01-30T13:48:20;2.45;;;0.70;;
40288;SDS011;28991;52.028;5.526;2024-01-30T13:50:46;2.72;;;1.05;;
40288;SDS011;28991;52.028;5.526;2024-01-30T13:53:12;1.20;;;0.60;;
40288;SDS011;28991;52.028;5.526;2024-01-30T13:55:38;1.45;;;0.80;;
40288;SDS011;28991;52.028;5.526;2024-01-30T13:58:04;5.82;;;1.33;;
40288;SDS011;28991;52.028;5.526;2024-01-30T14:00:30;3.10;;;0.80;;
40288;SDS011;28991;52.028;5.526;2024-01-30T14:02:56;3.15;;;0.60;;
40288;SDS011;28991;52.028;5.526;2024-01-30T14:05:23;4.80;;;1.02;;
40288;SDS011;28991;52.028;5.526;2024-01-30T14:07:49;1.83;;;0.60;;
40288;SDS011;28991;52.028;5.526;2024-01-30T14:10:16;2.17;;;0.65;;
40288;SDS011;28991;52.028;5.526;2024-01-30T14:12:42;1.65;;;0.60;;
40288;SDS011;28991;52.028;5.526;2024-01-30T14:15:09;1.88;;;0.70;;
40288;SDS011;28991;52.028;5.526;2024-01-30T14:17:35;3.63;;;0.82;;
40288;SDS011;28991;52.028;5.526;2024-01-30T14:20:01;1.55;;;0.60;;
40288;SDS011;28991;52.028;5.526;2024-01-30T14:22:28;3.22;;;0.90;;
40288;SDS011;28991;52.028;5.526;2024-01-30T14:24:53;3.72;;;0.63;;
40288;SDS011;28991;52.028;5.526;2024-01-30T14:27:21;1.33;;;0.60;;
40288;SDS011;28991;52.028;5.526;2024-01-30T14:29:46;4.53;;;0.70;;
40288;SDS011;28991;52.028;5.526;2024-01-30T14:32:12;2.35;;;1.27;;
40288;SDS011;28991;52.028;5.526;2024-01-30T14:34:38;4.20;;;0.70;;
40288;SDS011;28991;52.028;5.526;2024-01-30T14:37:04;2.83;;;0.60;;
40288;SDS011;28991;52.028;5.526;2024-01-30T14:39:29;3.72;;;0.52;;
40288;SDS011;28991;52.028;5.526;2024-01-30T14:41:55;5.40;;;0.90;;
40288;SDS011;28991;52.028;5.526;2024-01-30T14:44:21;0.98;;;0.60;;